Terminal Aerodrome Forecast
Issued by NWS

Home | Current Version | Previous Version | Text Only | Print | Product List | Glossary On
Versions: 1 2 3 4 5 6 7 8 9 10 11 12 13 14 15 16 17 18 19 20 21 22 23 24 25 26 27 28 29 30 31 32 33 34 35 36 37 38 39 40 41 42 43 44 45 46 47 48 49 50
000
FTUS44 KHGX 021821 AAA
TAFIAH
TAF AMD
KIAH 021821Z 0218/0324 33006KT 6SM BR OVC006
     FM022000 01006KT 6SM BR OVC006
     FM030200 VRB05KT 4SM BR OVC004
     FM030800 VRB03KT 2SM BR OVC001
      TEMPO 0310/0314 1/4SM FG
     FM031500 19005KT 4SM BR OVC005
     FM031900 17010KT P6SM OVC007=

USA.gov is the U.S. government's official web portal to all federal, state and local government web resources and services.